AirNav   Everest Fuels
 
 1215 users online  

15XS Toy Airpark
Liverpool, Texas, USA

GOING TO LIVERPOOL?


FAA INFORMATION EFFECTIVE 22 APRIL 2021

Location

FAA Identifier: 15XS
Lat/Long: 29-19-57.8590N 095-20-02.7710W
29-19.964317N 095-20.046183W
29.3327386,-95.3341031
(estimated)
Elevation: 36 ft. / 11 m (estimated)
Variation: 05E (1995)
From city: 5 miles NW of LIVERPOOL, TX
Time zone: UTC -5 (UTC -6 during Standard Time)
Zip code: 77511

Airport Operations

Airport use: Private use. Permission required prior to landing
Activation date: 06/1997
Control tower: no
ARTCC: HOUSTON CENTER
FSS: MONTGOMERY COUNTY FLIGHT SERVICE STATION
Attendance: UNATNDD
Segmented circle: no

Airport Communications

WX ASOS at LVJ (12 nm NE): 118.525 (281-992-1853)
WX AWOS-3 at AXH (13 nm NW): 123.625 (281-431-6572)
WX ASOS at LBX (15 nm SW): 119.925 (979-849-3319)
WX AWOS-3 at EFD (19 nm NE): 135.575 (713-847-4430)
WX ASOS at HOU (19 nm N): PHONE 713-847-1462

Nearby radio navigation aids

VOR radial/distance  VOR name  Freq  Var
VUHr273/24.7SCHOLES VOR/DME113.0006E
MHFr240/33.2TRINITY VOR/DME113.6007E
IAHr174/37.5HUMBLE VORTAC116.6005E

Airport Services

Runway Information

Runway 6/24

Dimensions: 1915 x 70 ft. / 584 x 21 m
Surface: turf
RUNWAY 6  RUNWAY 24
Traffic pattern: leftleft
Displaced threshold: 525 ft.no
Obstructions: 37 ft. pline4 ft. fence

Airport Ownership and Management from official FAA records

Ownership: Privately-owned
Owner: JOHN & SANDRA RICE
8815 COUNTY RD 511
ROSHARON, TX 77583
Phone 713-331-3174
Manager: JOHN & SANDRA RICE
8815 COUNTY RD 511
ROSHARON, TX 77583
Phone 713-331-3174

Airport Operational Statistics

Aircraft based on the field: 2
Single engine airplanes: 2
    

Additional Remarks

FOR CD CTC HOUSTON ARTCC AT 281-230-5622.

Instrument Procedures

There are no published instrument procedures at 15XS.

Some nearby airports with instrument procedures:

KLVJ - Pearland Regional Airport (12 nm NE)
KAXH - Houston Southwest Airport (13 nm NW)
KLBX - Texas Gulf Coast Regional Airport (15 nm SW)
KEFD - Ellington Airport (19 nm NE)
KHOU - William P Hobby Airport (19 nm N)
 
Loc | Ops | Rwys | IFR | FBO | Links
Com | Nav | Svcs | Stats | Notes
Area around 15XS (Toy Airpark)
 
Road maps at: MapQuest Bing Google
 
Aerial photo
No photo
 
Sectional chart

 
Airport distance calculator
Flying to Toy Airpark? Find the distance to fly.

From to 15XS

Sunrise and sunset
Times for 13-May-2021
 Local
(UTC-5)
 Zulu
(UTC)
Morning civil twilight06:0611:06
Sunrise06:3111:31
Sunset20:0401:04
Evening civil twilight20:3001:30

Current date and time
Zulu (UTC)  13-May-2021 22:40:32
Local (UTC-5)  13-May-2021 17:40:32
 
METAR
KLVJ 
12nm N 
132153Z AUTO 07008KT 10SM OVC045 24/15 A3019 RMK AO2 SLP220 T02440150
KAXH 
13nm NW 
132215Z AUTO 04005KT 10SM OVC049 24/15 A3018 RMK AO2 T02400150
KLBX 
15nm SW 
132153Z AUTO 04005KT 10SM FEW035 OVC047 24/16 A3018 RMK AO2 SLP218 T02440161
KHOU 
18nm N 
132153Z 03007KT 10SM OVC045 24/14 A3017 RMK AO2 SLP221 T02440139
KEFD 
18nm NE 
132150Z 05008KT 10SM SCT040 OVC050 24/15 A3017
KSGR 
24nm NW 
132153Z 05006KT 10SM OVC048 26/15 A3017 RMK AO2 SLP218 T02560150
TAF
KLBX 
15nm SW 
131724Z 1318/1418 01010KT P6SM BKN035 FM132200 04007KT P6SM SCT050 FM140200 VRB04KT P6SM SCT050 FM141300 06008KT P6SM SCT040 FM141400 09009KT P6SM BKN040
KHOU 
18nm N 
132105Z 1321/1418 01006KT P6SM OVC040 FM140400 07005KT P6SM SCT040 FM141600 11007KT P6SM SCT025 BKN040
KEFD 
18nm NE 
132000Z 1320/1502 03012KT 9999 OVC040 QNH3013INS BECMG 1411/1412 05006KT 9999 FEW020 QNH3017INS BECMG 1414/1415 07012KT 9999 SCT028 QNH3010INS TX24/1321Z TN18/1412Z
NOTAMs
Click for the latest NOTAMs
NOTAMs are issued by the DoD/FAA and will open in a separate window not controlled by AirNav.

 

 
 

Would you like to see your business listed on this page?

 If your business provides an interesting product or service to pilots, flight crews, aircraft, or users of the Toy Airpark, you should consider listing it here.  To start the listing process, click on the button below
 
Add a business
 

Other Pages about Toy Airpark

Update a link
 
Copyright © AirNav, LLC. All rights reserved. Privacy Policy  Contact